Time;durP1;ratioP1;P1;durP2;ratioP2;P2;SDS_P1;SDS_P2;PMS_P1;PMS_P2;Temp;Humidity;BMP_temperature;BMP_pressure;BME280_temperature;BME280_humidity;BME280_pressure;Samples;Min_cycle;Max_cycle;Signal;HPM_P1;HPM_P2
2021/10/13 00:00:17;;;;;;;1.98;1.80;;;22.70;68.10;;;;;;5125391;28;20031;-36
2021/10/13 00:02:44;;;;;;;2.20;2.00;;;22.70;68.70;;;;;;5125398;28;20027;-36
2021/10/13 00:05:10;;;;;;;2.42;1.85;;;22.70;68.90;;;;;;5125859;28;20019;-36
2021/10/13 00:07:36;;;;;;;2.08;1.85;;;22.70;69.10;;;;;;5125035;28;20041;-36
2021/10/13 00:10:03;;;;;;;1.63;1.53;;;22.70;69.30;;;;;;5106253;28;20053;-36
2021/10/13 00:12:32;;;;;;;2.30;2.10;;;22.70;69.40;;;;;;5105835;28;20035;-36
2021/10/13 00:14:58;;;;;;;2.58;2.38;;;22.70;69.50;;;;;;5124946;28;20088;-37
2021/10/13 00:17:24;;;;;;;2.25;2.05;;;22.70;69.50;;;;;;5124841;28;20494;-37
2021/10/13 00:19:50;;;;;;;1.90;1.75;;;22.70;69.50;;;;;;5124991;27;20071;-37
2021/10/13 00:22:16;;;;;;;2.38;2.17;;;22.70;69.50;;;;;;5124900;28;20764;-37
2021/10/13 00:24:42;;;;;;;1.85;1.75;;;22.70;69.50;;;;;;5125201;27;20024;-37
2021/10/13 00:27:09;;;;;;;2.15;1.95;;;22.70;69.50;;;;;;5105092;28;20480;-37
2021/10/13 00:29:36;;;;;;;2.13;1.92;;;22.70;69.50;;;;;;5124771;28;20119;-36
2021/10/13 00:32:04;;;;;;;;;;;22.70;69.50;;;;;;5125354;28;20027;-37
2021/10/13 00:34:32;;;;;;;2.30;2.00;;;22.70;69.50;;;;;;5125148;28;19926;-37
2021/10/13 00:36:59;;;;;;;2.25;2.08;;;22.70;69.60;;;;;;5134187;27;20023;-37
2021/10/13 00:39:25;;;;;;;2.22;2.03;;;22.70;69.50;;;;;;5108278;28;20027;-37
2021/10/13 00:41:51;;;;;;;2.20;2.00;;;22.70;69.60;;;;;;5125079;28;20045;-37
2021/10/13 00:44:17;;;;;;;2.25;2.05;;;22.70;69.60;;;;;;5106338;28;20055;-37
2021/10/13 00:46:43;;;;;;;2.30;2.10;;;22.70;69.60;;;;;;5124548;28;20023;-37
2021/10/13 00:49:10;;;;;;;2.30;2.10;;;22.70;69.60;;;;;;5123619;28;20218;-37
2021/10/13 00:51:36;;;;;;;2.25;1.90;;;22.70;69.60;;;;;;5124884;28;20104;-37
2021/10/13 00:54:02;;;;;;;3.33;2.17;;;22.70;69.60;;;;;;5140526;27;20043;-37
2021/10/13 00:56:28;;;;;;;2.55;2.35;;;22.70;69.60;;;;;;5126863;27;20030;-37
2021/10/13 00:58:54;;;;;;;2.95;2.17;;;22.70;69.70;;;;;;5127538;27;20063;-37
2021/10/13 01:01:31;;;;;;;2.13;1.98;;;22.70;69.70;;;;;;5126052;27;20028;-37
2021/10/13 01:04:14;;;;;;;2.28;1.92;;;22.70;69.80;;;;;;5106826;28;20507;-37
2021/10/13 01:06:47;;;;;;;2.20;2.00;;;22.70;69.80;;;;;;5106259;28;20019;-37
2021/10/13 01:09:26;;;;;;;2.25;2.05;;;22.70;69.70;;;;;;5105334;28;20491;-37
2021/10/13 01:12:16;;;;;;;2.40;2.20;;;22.70;69.80;;;;;;5116951;28;20023;-37
2021/10/13 01:15:15;;;;;;;2.20;2.00;;;22.70;69.80;;;;;;5124238;28;20503;-37
2021/10/13 01:17:43;;;;;;;;;;;22.70;69.80;;;;;;5109233;28;20074;-37
2021/10/13 01:20:21;;;;;;;;;;;22.70;69.70;;;;;;5127729;27;19954;-37
2021/10/13 01:23:05;;;;;;;2.45;2.25;;;22.70;69.70;;;;;;5125015;27;19915;-37
2021/10/13 01:26:23;;;;;;;2.42;2.22;;;22.70;69.80;;;;;;5136459;27;20037;-37
2021/10/13 01:28:50;;;;;;;2.25;2.08;;;22.70;69.90;;;;;;5060310;28;20036;-37
2021/10/13 01:31:22;;;;;;;2.50;2.30;;;22.70;69.80;;;;;;5043213;28;21032;-37
2021/10/13 01:34:00;;;;;;;2.42;2.22;;;22.70;69.80;;;;;;5044113;28;20037;-37
2021/10/13 01:36:28;;;;;;;;;;;22.70;69.90;;;;;;5064427;28;20032;-37
2021/10/13 01:38:54;;;;;;;2.40;2.20;;;22.70;69.90;;;;;;5078968;28;19904;-37
2021/10/13 01:41:21;;;;;;;2.20;2.10;;;22.70;69.90;;;;;;5063879;28;20257;-37
2021/10/13 01:43:48;;;;;;;2.85;2.50;;;22.70;69.90;;;;;;5063061;28;20052;-37
2021/10/13 01:46:15;;;;;;;2.58;2.30;;;22.70;70.60;;;;;;5059633;28;20033;-37
2021/10/13 01:48:41;;;;;;;;;;;22.70;69.90;;;;;;5080287;28;20024;-37
2021/10/13 01:51:07;;;;;;;2.28;2.08;;;22.70;70.00;;;;;;5063367;28;19920;-37
2021/10/13 01:53:33;;;;;;;3.00;2.70;;;22.70;70.70;;;;;;5061795;28;20047;-37
2021/10/13 01:56:02;;;;;;;2.78;2.50;;;22.70;70.00;;;;;;5060330;28;20069;-37
2021/10/13 01:58:28;;;;;;;2.65;2.45;;;22.70;70.00;;;;;;5060701;28;20033;-37
2021/10/13 02:00:54;;;;;;;3.45;2.00;;;22.70;69.90;;;;;;5062926;28;20020;-37
2021/10/13 02:03:23;;;;;;;2.50;2.30;;;22.70;70.00;;;;;;5047642;28;20032;-37
2021/10/13 02:05:51;;;;;;;2.53;2.33;;;22.70;70.00;;;;;;5111875;28;20035;-37
2021/10/13 02:08:18;;;;;;;4.03;2.63;;;22.70;70.00;;;;;;5099996;28;20042;-38
2021/10/13 02:10:45;;;;;;;3.30;2.45;;;22.70;70.10;;;;;;5104399;28;20051;-37
2021/10/13 02:13:11;;;;;;;2.80;2.60;;;22.70;70.20;;;;;;5104742;28;20047;-37
2021/10/13 02:15:37;;;;;;;2.60;2.40;;;22.70;70.10;;;;;;5103641;28;20038;-36
2021/10/13 02:18:03;;;;;;;2.50;2.17;;;22.70;70.10;;;;;;5101154;28;20032;-36
2021/10/13 02:20:30;;;;;;;3.60;2.53;;;22.70;70.20;;;;;;5084226;28;20048;-36
2021/10/13 02:22:58;;;;;;;3.38;2.50;;;22.70;70.20;;;;;;5084704;28;20024;-37
2021/10/13 02:25:24;;;;;;;2.78;2.58;;;22.70;70.10;;;;;;5101332;28;20032;-37
2021/10/13 02:28:00;;;;;;;3.35;2.45;;;22.70;70.20;;;;;;5101780;28;20032;-36
2021/10/13 02:30:26;;;;;;;2.72;2.50;;;22.60;70.10;;;;;;5121714;28;20179;-37
2021/10/13 02:32:52;;;;;;;2.85;2.50;;;22.70;70.20;;;;;;5122298;28;20031;-39
2021/10/13 02:35:18;;;;;;;2.72;2.50;;;22.60;70.10;;;;;;5104703;28;20039;-37
2021/10/13 02:37:44;;;;;;;2.78;2.40;;;22.70;70.20;;;;;;5122314;28;20054;-37
2021/10/13 02:40:11;;;;;;;3.63;2.45;;;22.60;70.20;;;;;;5122589;28;20030;-36
2021/10/13 02:42:38;;;;;;;2.75;2.50;;;22.60;70.20;;;;;;5120426;28;20027;-37
2021/10/13 02:45:04;;;;;;;2.63;2.42;;;22.60;70.20;;;;;;5094251;28;20091;-37
2021/10/13 02:47:55;;;;;;;2.70;2.50;;;22.60;70.20;;;;;;5103576;28;20011;-36
2021/10/13 02:50:26;;;;;;;3.53;2.50;;;22.60;70.20;;;;;;5122674;28;20056;-37
2021/10/13 02:53:08;;;;;;;3.33;2.70;;;22.60;70.20;;;;;;5089860;28;20659;-37
2021/10/13 02:55:54;;;;;;;2.92;2.63;;;22.60;70.20;;;;;;5122799;27;20028;-37
2021/10/13 02:58:21;;;;;;;2.72;2.53;;;22.60;70.30;;;;;;5106518;28;20035;-37
2021/10/13 03:00:49;;;;;;;3.70;2.55;;;22.60;70.30;;;;;;5104186;28;20016;-36
2021/10/13 03:03:15;;;;;;;;;;;22.60;70.30;;;;;;5122515;28;20415;-37
2021/10/13 03:05:41;;;;;;;2.78;2.45;;;22.60;70.30;;;;;;5142113;27;19914;-36
2021/10/13 03:08:08;;;;;;;2.85;2.65;;;22.60;70.30;;;;;;5107793;28;20080;-37
2021/10/13 03:10:35;;;;;;;2.78;2.45;;;22.60;70.40;;;;;;5122989;28;20023;-37
2021/10/13 03:13:02;;;;;;;3.43;2.77;;;22.60;70.40;;;;;;5098669;28;20047;-37
2021/10/13 03:15:28;;;;;;;3.33;2.97;;;22.60;70.40;;;;;;5097342;28;20268;-36
2021/10/13 03:17:56;;;;;;;3.17;2.78;;;22.60;70.40;;;;;;5122553;28;20031;-36
2021/10/13 03:20:23;;;;;;;2.85;2.35;;;22.60;70.40;;;;;;5104146;28;20068;-37
2021/10/13 03:22:49;;;;;;;2.85;2.63;;;22.60;70.50;;;;;;5084146;28;20036;-36
2021/10/13 03:25:26;;;;;;;2.70;2.50;;;22.50;70.40;;;;;;5113920;28;20027;-37
2021/10/13 03:27:52;;;;;;;3.00;2.70;;;22.50;70.40;;;;;;5086547;28;20034;-36
2021/10/13 03:30:18;;;;;;;3.03;2.72;;;22.50;70.50;;;;;;5102701;28;20190;-36
2021/10/13 03:32:45;;;;;;;2.92;2.67;;;22.50;70.40;;;;;;5105861;28;20028;-36
2021/10/13 03:35:19;;;;;;;2.95;2.58;;;22.50;70.50;;;;;;5087377;28;20784;-37
2021/10/13 03:37:45;;;;;;;2.92;2.70;;;22.50;70.50;;;;;;5113080;27;20024;-37
2021/10/13 03:40:12;;;;;;;3.03;2.72;;;22.50;70.50;;;;;;5127352;27;20606;-37
2021/10/13 03:42:38;;;;;;;2.90;2.70;;;22.50;70.50;;;;;;5146658;27;20125;-37
2021/10/13 03:45:04;;;;;;;3.65;3.08;;;22.50;70.50;;;;;;5128909;27;20597;-36
2021/10/13 03:47:31;;;;;;;2.88;2.67;;;22.50;70.50;;;;;;5126028;28;20047;-37
2021/10/13 03:49:57;;;;;;;2.90;2.70;;;22.50;70.60;;;;;;5125827;28;20075;-37
2021/10/13 03:52:23;;;;;;;2.87;2.60;;;22.50;70.60;;;;;;5125761;28;20032;-37
2021/10/13 03:54:49;;;;;;;2.65;2.45;;;22.50;70.70;;;;;;5135381;27;20038;-36
2021/10/13 03:57:15;;;;;;;2.72;2.45;;;22.50;70.70;;;;;;5125500;28;20031;-37
2021/10/13 03:59:41;;;;;;;2.90;2.70;;;22.50;70.70;;;;;;5125705;28;20083;-37
2021/10/13 04:02:08;;;;;;;3.22;2.70;;;22.50;70.70;;;;;;5139493;27;20520;-37
2021/10/13 04:04:34;;;;;;;3.08;2.83;;;22.40;70.70;;;;;;5125313;27;20058;-36
2021/10/13 04:07:00;;;;;;;4.72;3.10;;;22.40;70.70;;;;;;5114422;28;20069;-36
2021/10/13 04:09:26;;;;;;;2.78;2.58;;;22.40;70.70;;;;;;5125293;28;20023;-36
2021/10/13 04:11:52;;;;;;;3.17;2.90;;;22.40;70.60;;;;;;5125564;28;20023;-37
2021/10/13 04:14:18;;;;;;;3.75;3.13;;;22.40;70.70;;;;;;5121334;28;20055;-37
2021/10/13 04:16:44;;;;;;;3.60;3.25;;;22.40;70.70;;;;;;5124660;27;20070;-36
2021/10/13 04:19:10;;;;;;;3.25;2.78;;;22.40;70.80;;;;;;5118414;28;20020;-37
2021/10/13 04:21:37;;;;;;;3.17;2.97;;;22.40;70.80;;;;;;5115478;28;20023;-36
2021/10/13 04:24:03;;;;;;;4.10;3.10;;;22.40;70.70;;;;;;5125325;28;20039;-37
2021/10/13 04:26:29;;;;;;;4.57;2.92;;;22.40;70.80;;;;;;5118309;28;20122;-36
2021/10/13 04:28:55;;;;;;;3.30;3.00;;;22.40;70.80;;;;;;5104912;28;20115;-36
2021/10/13 04:31:21;;;;;;;4.07;2.90;;;22.40;70.90;;;;;;5104753;28;20030;-36
2021/10/13 04:33:47;;;;;;;2.88;2.67;;;22.30;70.80;;;;;;5103434;28;20073;-36
2021/10/13 04:36:14;;;;;;;4.22;3.03;;;22.30;70.90;;;;;;5111420;28;20035;-37
2021/10/13 04:38:40;;;;;;;4.43;3.28;;;22.30;70.90;;;;;;5124676;28;20027;-36
2021/10/13 04:41:06;;;;;;;3.45;3.15;;;22.30;70.80;;;;;;5124837;28;20015;-36
2021/10/13 04:43:32;;;;;;;3.13;2.83;;;22.30;71.00;;;;;;5128674;27;20120;-36
2021/10/13 04:45:58;;;;;;;3.22;2.83;;;22.30;70.90;;;;;;5127406;27;20028;-37
2021/10/13 04:48:24;;;;;;;3.47;3.17;;;22.30;71.00;;;;;;5124970;28;20027;-36
2021/10/13 04:50:50;;;;;;;3.80;3.00;;;22.30;71.00;;;;;;5125194;28;20395;-36
2021/10/13 04:53:17;;;;;;;3.22;2.92;;;22.30;70.90;;;;;;5125115;28;20059;-36
2021/10/13 04:55:43;;;;;;;3.33;3.03;;;22.30;71.00;;;;;;5132516;27;20030;-37
2021/10/13 04:58:09;;;;;;;2.85;2.65;;;22.30;71.00;;;;;;5145366;27;20052;-36
2021/10/13 05:00:35;;;;;;;2.90;2.70;;;22.30;71.10;;;;;;5145474;27;20567;-37
2021/10/13 05:03:01;;;;;;;3.40;3.10;;;22.20;71.00;;;;;;5145514;27;20038;-36
2021/10/13 05:05:27;;;;;;;3.20;2.90;;;22.20;71.00;;;;;;5145211;27;20033;-36
2021/10/13 05:07:53;;;;;;;3.28;2.97;;;22.20;71.00;;;;;;5127966;27;20035;-36
2021/10/13 05:10:19;;;;;;;2.90;2.60;;;22.20;71.00;;;;;;5124774;28;20020;-37
2021/10/13 05:12:45;;;;;;;3.58;3.00;;;22.20;71.10;;;;;;5124772;28;20714;-37
2021/10/13 05:15:12;;;;;;;3.53;3.22;;;22.20;71.00;;;;;;5124620;28;20030;-36
2021/10/13 05:17:38;;;;;;;3.20;3.00;;;22.20;71.10;;;;;;5109317;27;20032;-36
2021/10/13 05:20:04;;;;;;;3.70;3.00;;;22.20;71.20;;;;;;5104211;28;20074;-36
2021/10/13 05:22:31;;;;;;;3.05;2.72;;;22.20;71.20;;;;;;5104151;28;20111;-37
2021/10/13 05:24:57;;;;;;;3.92;3.03;;;22.20;71.20;;;;;;5127929;27;20114;-37
2021/10/13 05:27:23;;;;;;;4.95;3.17;;;22.20;71.20;;;;;;5144862;27;20023;-36
2021/10/13 05:29:49;;;;;;;3.25;2.95;;;22.10;71.10;;;;;;5143983;27;20027;-36
2021/10/13 05:32:15;;;;;;;2.78;2.58;;;22.10;71.10;;;;;;5144666;27;20119;-36
2021/10/13 05:34:41;;;;;;;2.95;2.70;;;22.10;71.20;;;;;;5144313;27;20060;-37
2021/10/13 05:37:07;;;;;;;3.85;2.83;;;22.10;71.20;;;;;;5133115;27;20110;-37
2021/10/13 05:39:33;;;;;;;3.65;2.88;;;22.10;71.20;;;;;;5123889;28;20035;-37
2021/10/13 05:42:00;;;;;;;3.58;3.10;;;22.10;71.20;;;;;;5124270;28;20043;-37
2021/10/13 05:44:26;;;;;;;4.25;3.40;;;22.10;71.30;;;;;;5121746;28;20027;-37
2021/10/13 05:46:52;;;;;;;3.13;2.83;;;22.10;71.30;;;;;;5123941;28;20467;-36
2021/10/13 05:49:18;;;;;;;3.40;3.10;;;22.10;71.30;;;;;;5123627;28;20051;-36
2021/10/13 05:51:44;;;;;;;3.45;2.95;;;22.10;71.40;;;;;;5138720;27;20123;-37
2021/10/13 05:54:10;;;;;;;3.60;3.10;;;22.00;71.30;;;;;;5143933;27;20039;-37
2021/10/13 05:56:37;;;;;;;3.22;2.92;;;22.00;71.40;;;;;;5144372;27;20379;-36
2021/10/13 05:59:03;;;;;;;3.50;3.00;;;22.10;71.50;;;;;;5144158;27;20034;-37
2021/10/13 06:01:30;;;;;;;3.20;2.92;;;22.00;71.40;;;;;;5120083;27;20089;-36
2021/10/13 06:03:56;;;;;;;3.23;3.03;;;22.00;71.50;;;;;;5103436;28;20028;-37
2021/10/13 06:06:22;;;;;;;3.05;2.85;;;22.00;71.50;;;;;;5118463;28;20091;-37
2021/10/13 06:08:48;;;;;;;3.65;3.03;;;22.00;71.50;;;;;;5123152;28;20114;-37
2021/10/13 06:11:14;;;;;;;3.35;2.97;;;22.00;71.50;;;;;;5123744;28;20105;-36
2021/10/13 06:13:41;;;;;;;4.10;3.28;;;22.00;71.50;;;;;;5123012;27;20036;-36
2021/10/13 06:16:11;;;;;;;5.13;3.23;;;22.00;71.50;;;;;;5123267;28;20015;-37
2021/10/13 06:18:37;;;;;;;3.40;3.10;;;22.00;71.60;;;;;;5121113;28;20334;-36
2021/10/13 06:21:04;;;;;;;3.17;2.92;;;22.00;71.50;;;;;;5118955;28;20031;-36
2021/10/13 06:23:30;;;;;;;4.55;3.45;;;21.90;71.60;;;;;;5123014;28;20031;-37
2021/10/13 06:25:57;;;;;;;3.45;3.15;;;21.90;71.60;;;;;;5124367;28;20046;-36
2021/10/13 06:28:23;;;;;;;3.33;3.08;;;21.90;71.70;;;;;;5143870;27;20757;-37
2021/10/13 06:30:49;;;;;;;3.40;3.10;;;21.90;71.60;;;;;;5141635;27;20110;-37
2021/10/13 06:33:15;;;;;;;3.67;3.38;;;21.90;71.70;;;;;;5126276;27;20043;-37
2021/10/13 06:35:41;;;;;;;3.13;2.90;;;21.90;71.70;;;;;;5122804;28;20054;-37
2021/10/13 06:38:07;;;;;;;2.92;2.70;;;21.90;71.70;;;;;;5104539;28;20023;-37
2021/10/13 06:40:33;;;;;;;3.72;2.88;;;21.90;71.80;;;;;;5123463;28;20016;-37
2021/10/13 06:43:01;;;;;;;3.38;3.08;;;21.90;71.80;;;;;;5123296;28;20106;-37
2021/10/13 06:45:28;;;;;;;3.35;3.05;;;21.90;71.90;;;;;;5122907;28;20063;-37
2021/10/13 06:47:54;;;;;;;3.72;3.42;;;21.90;71.90;;;;;;5123238;28;20058;-36
2021/10/13 06:50:20;;;;;;;4.68;3.10;;;21.90;71.90;;;;;;5122881;28;20054;-37
2021/10/13 06:52:46;;;;;;;3.38;3.08;;;21.90;71.90;;;;;;5123165;28;20027;-37
2021/10/13 06:55:13;;;;;;;2.85;2.65;;;21.90;71.90;;;;;;5087666;28;20070;-37
2021/10/13 06:57:40;;;;;;;3.10;2.80;;;21.80;71.90;;;;;;5108479;28;20057;-37
2021/10/13 07:00:06;;;;;;;3.63;2.95;;;21.80;72.00;;;;;;5122743;28;20030;-36
2021/10/13 07:02:33;;;;;;;3.40;3.10;;;21.80;72.00;;;;;;5123129;28;20047;-36
2021/10/13 07:04:59;;;;;;;3.75;2.92;;;21.80;71.90;;;;;;5109493;28;20049;-36
2021/10/13 07:07:25;;;;;;;3.65;3.35;;;21.80;72.00;;;;;;5113290;28;20046;-36
2021/10/13 07:09:51;;;;;;;3.55;3.25;;;21.80;72.00;;;;;;5112073;28;20020;-36
2021/10/13 07:12:17;;;;;;;3.58;3.17;;;21.80;72.00;;;;;;5106447;28;20085;-37
2021/10/13 07:14:43;;;;;;;4.00;3.08;;;21.80;72.00;;;;;;5106037;28;20088;-37
2021/10/13 07:17:10;;;;;;;3.25;3.00;;;21.80;72.00;;;;;;5116142;28;20124;-37
2021/10/13 07:19:36;;;;;;;3.60;3.30;;;21.80;72.10;;;;;;5112648;28;20035;-36
2021/10/13 07:22:02;;;;;;;3.83;3.25;;;21.80;72.10;;;;;;5105980;28;20478;-36
2021/10/13 07:24:28;;;;;;;4.95;3.17;;;21.70;72.10;;;;;;5122733;28;20033;-37
2021/10/13 07:26:55;;;;;;;3.22;2.92;;;21.80;72.10;;;;;;5118628;28;20024;-37
2021/10/13 07:29:21;;;;;;;3.87;3.43;;;21.70;72.20;;;;;;5105679;28;20115;-37
2021/10/13 07:31:47;;;;;;;2.47;2.28;;;21.80;72.20;;;;;;5108050;28;20111;-36
2021/10/13 07:34:13;;;;;;;3.58;3.28;;;21.70;72.20;;;;;;5122199;28;20059;-36
2021/10/13 07:36:39;;;;;;;3.97;2.95;;;21.70;72.20;;;;;;5106570;28;20547;-36
2021/10/13 07:39:06;;;;;;;3.92;3.10;;;21.70;72.30;;;;;;5070811;28;20047;-36
2021/10/13 07:41:32;;;;;;;3.42;3.13;;;21.70;72.30;;;;;;5118894;28;20012;-37
2021/10/13 07:43:58;;;;;;;3.78;3.47;;;21.70;72.30;;;;;;5126264;28;20034;-36
2021/10/13 07:46:25;;;;;;;3.28;2.97;;;21.70;72.30;;;;;;5105844;28;20091;-36
2021/10/13 07:48:52;;;;;;;4.53;3.58;;;21.70;72.30;;;;;;5112955;28;20061;-37
2021/10/13 07:51:19;;;;;;;3.85;3.55;;;21.70;72.30;;;;;;5114588;28;20142;-36
2021/10/13 07:53:45;;;;;;;4.05;3.10;;;21.60;72.40;;;;;;5120525;28;20071;-36
2021/10/13 07:56:11;;;;;;;3.90;3.58;;;21.60;72.30;;;;;;5124351;28;20030;-36
2021/10/13 07:58:37;;;;;;;3.97;3.42;;;21.60;72.30;;;;;;5105942;28;20020;-36
2021/10/13 08:01:03;;;;;;;3.40;3.10;;;21.60;72.40;;;;;;5113095;28;20028;-36
2021/10/13 08:03:29;;;;;;;3.25;2.95;;;21.70;72.40;;;;;;5116312;28;20032;-36
2021/10/13 08:05:55;;;;;;;3.33;3.03;;;21.60;72.40;;;;;;5125527;28;20568;-36
2021/10/13 08:08:21;;;;;;;3.63;3.33;;;21.70;72.40;;;;;;5105280;28;20093;-36
2021/10/13 08:10:48;;;;;;;3.55;3.08;;;21.60;72.40;;;;;;5104957;28;20031;-37
2021/10/13 08:13:14;;;;;;;3.90;3.45;;;21.60;72.50;;;;;;5116611;28;20147;-36
2021/10/13 08:15:40;;;;;;;3.50;3.20;;;21.60;72.50;;;;;;5117925;27;20023;-36
2021/10/13 08:18:06;;;;;;;3.65;3.13;;;21.60;72.50;;;;;;5105363;28;20028;-36
2021/10/13 08:20:32;;;;;;;3.80;3.40;;;21.60;72.60;;;;;;5104950;28;20091;-37
2021/10/13 08:22:58;;;;;;;4.85;3.50;;;21.60;72.60;;;;;;5110638;28;20059;-36
2021/10/13 08:25:24;;;;;;;3.85;3.30;;;21.60;72.60;;;;;;5125316;28;20039;-36
2021/10/13 08:27:50;;;;;;;3.80;3.50;;;21.60;72.60;;;;;;5125291;28;20391;-36
2021/10/13 08:30:17;;;;;;;3.58;3.28;;;21.60;72.60;;;;;;5111101;28;20028;-37
2021/10/13 08:32:43;;;;;;;3.45;3.15;;;21.60;72.60;;;;;;5104672;28;20035;-37
2021/10/13 08:35:09;;;;;;;4.97;3.70;;;21.60;72.70;;;;;;5104669;28;20039;-36
2021/10/13 08:37:36;;;;;;;3.67;3.37;;;21.50;72.60;;;;;;5104785;28;20024;-36
2021/10/13 08:40:03;;;;;;;4.88;3.58;;;21.50;72.70;;;;;;5104912;28;20024;-36
2021/10/13 08:42:29;;;;;;;3.63;3.33;;;21.50;72.70;;;;;;5104804;28;20090;-36
2021/10/13 08:44:56;;;;;;;5.75;3.00;;;21.50;72.70;;;;;;5104609;28;20154;-37
2021/10/13 08:47:22;;;;;;;3.65;3.35;;;21.50;72.70;;;;;;5116311;28;20088;-36
2021/10/13 08:49:51;;;;;;;3.60;3.30;;;21.50;72.80;;;;;;5124866;28;20056;-36
2021/10/13 08:52:17;;;;;;;4.22;3.78;;;21.50;72.80;;;;;;5107546;28;20026;-36
2021/10/13 08:54:43;;;;;;;3.65;3.05;;;21.50;72.80;;;;;;5124558;28;20032;-36
2021/10/13 08:57:16;;;;;;;4.10;3.67;;;21.50;72.80;;;;;;5120175;28;20031;-37
2021/10/13 08:59:43;;;;;;;3.70;3.20;;;21.50;72.90;;;;;;5091091;28;20016;-36
2021/10/13 09:02:12;;;;;;;3.60;3.30;;;21.40;72.80;;;;;;5121768;28;20035;-36
2021/10/13 09:04:38;;;;;;;3.95;3.50;;;21.40;72.80;;;;;;5124794;28;20027;-36
2021/10/13 09:07:05;;;;;;;5.30;3.53;;;21.40;72.80;;;;;;5123674;28;20039;-36
2021/10/13 09:09:31;;;;;;;3.35;3.08;;;21.50;72.90;;;;;;5119716;28;20020;-36
2021/10/13 09:11:58;;;;;;;3.63;3.20;;;21.40;72.90;;;;;;5124679;28;20111;-36
2021/10/13 09:14:28;;;;;;;3.72;3.10;;;21.40;72.90;;;;;;5124741;28;20039;-36
2021/10/13 09:17:01;;;;;;;4.15;3.30;;;21.40;72.90;;;;;;5124149;28;20035;-36
2021/10/13 09:19:33;;;;;;;3.83;3.50;;;21.40;73.00;;;;;;5111774;28;20039;-36
2021/10/13 09:22:07;;;;;;;3.22;2.97;;;21.40;73.70;;;;;;5120882;28;20096;-37
2021/10/13 09:24:38;;;;;;;5.28;3.88;;;21.40;73.00;;;;;;5119025;28;20495;-37
2021/10/13 09:27:34;;;;;;;3.42;3.13;;;21.40;73.00;;;;;;5108215;28;20035;-36
2021/10/13 09:30:04;;;;;;;4.18;3.45;;;21.40;73.10;;;;;;5068053;28;20115;-36
2021/10/13 09:32:30;;;;;;;3.72;3.30;;;21.40;73.10;;;;;;5120110;28;20023;-37
2021/10/13 09:34:59;;;;;;;3.63;3.33;;;21.40;73.10;;;;;;5124070;28;20111;-36
2021/10/13 09:37:45;;;;;;;3.53;3.22;;;21.30;73.00;;;;;;5104933;28;20028;-37
2021/10/13 09:40:12;;;;;;;3.90;3.58;;;21.30;73.00;;;;;;5121985;28;20027;-37
2021/10/13 09:42:39;;;;;;;3.92;3.55;;;21.30;73.10;;;;;;5092445;28;20027;-37
2021/10/13 09:45:06;;;;;;;4.78;3.47;;;21.30;73.10;;;;;;5105336;28;20040;-36
2021/10/13 09:47:35;;;;;;;3.73;3.43;;;21.30;73.10;;;;;;5123271;28;20107;-36
2021/10/13 09:50:06;;;;;;;3.58;3.28;;;21.30;73.10;;;;;;5087821;28;20112;-37
2021/10/13 09:52:32;;;;;;;3.97;3.58;;;21.30;73.10;;;;;;5103360;28;20073;-37
2021/10/13 09:55:05;;;;;;;3.75;3.40;;;21.30;73.10;;;;;;5103309;28;20031;-36
2021/10/13 09:57:52;;;;;;;3.72;3.35;;;21.30;73.20;;;;;;5103082;28;20552;-36
2021/10/13 10:00:22;;;;;;;4.70;3.65;;;21.30;73.30;;;;;;5097199;28;20043;-36
2021/10/13 10:02:58;;;;;;;4.38;3.40;;;21.30;73.30;;;;;;5074040;28;20047;-37
2021/10/13 10:05:29;;;;;;;3.85;3.45;;;21.20;73.20;;;;;;5072864;28;20104;-36
2021/10/13 10:08:10;;;;;;;4.05;3.63;;;21.20;73.20;;;;;;5082188;28;20038;-37
2021/10/13 10:10:57;;;;;;;4.30;3.58;;;21.30;73.40;;;;;;5085570;28;20093;-37
2021/10/13 10:13:35;;;;;;;3.92;3.60;;;21.20;73.30;;;;;;5102583;28;20040;-37
2021/10/13 10:16:02;;;;;;;4.07;3.35;;;21.20;73.20;;;;;;5102760;28;20020;-37
2021/10/13 10:18:33;;;;;;;5.43;3.67;;;21.20;73.30;;;;;;5084347;28;20024;-36
2021/10/13 10:21:27;;;;;;;3.78;3.40;;;21.20;73.30;;;;;;5102965;28;20089;-37
2021/10/13 10:24:29;;;;;;;3.45;3.15;;;21.20;73.30;;;;;;5102685;28;20035;-36
2021/10/13 10:27:23;;;;;;;4.07;3.67;;;21.20;73.30;;;;;;5090233;28;20028;-36
2021/10/13 10:30:08;;;;;;;3.67;3.13;;;21.20;73.40;;;;;;5098053;28;20062;-37
2021/10/13 10:32:35;;;;;;;5.18;3.40;;;21.20;73.50;;;;;;5071683;28;20021;-36
2021/10/13 10:35:04;;;;;;;3.83;3.42;;;21.20;73.40;;;;;;5102556;28;20050;-37
2021/10/13 10:37:55;;;;;;;3.53;3.10;;;21.20;73.50;;;;;;5101255;28;20523;-37
2021/10/13 10:40:35;;;;;;;6.20;3.92;;;21.20;73.50;;;;;;5102504;28;20447;-37
2021/10/13 10:43:02;;;;;;;3.60;3.30;;;21.10;73.50;;;;;;5075771;28;20031;-37
2021/10/13 10:45:30;;;;;;;4.07;3.40;;;21.10;73.50;;;;;;5094901;28;20109;-36
2021/10/13 10:48:07;;;;;;;3.90;3.55;;;21.10;73.60;;;;;;5085547;28;20086;-37
2021/10/13 10:50:42;;;;;;;4.38;3.72;;;21.10;73.60;;;;;;5102263;28;20062;-37
2021/10/13 10:53:17;;;;;;;3.97;3.58;;;21.10;73.60;;;;;;5122986;28;20032;-36
2021/10/13 10:55:44;;;;;;;3.45;3.13;;;21.10;73.50;;;;;;5122698;28;20442;-37
2021/10/13 10:58:17;;;;;;;3.95;3.53;;;21.10;73.60;;;;;;5093011;28;20078;-36
2021/10/13 11:00:43;;;;;;;3.80;3.50;;;21.10;73.60;;;;;;5122714;28;20020;-37
2021/10/13 11:03:27;;;;;;;3.70;3.40;;;21.10;73.60;;;;;;5122858;28;20221;-37
2021/10/13 11:05:54;;;;;;;4.15;3.65;;;21.10;73.60;;;;;;5122861;28;20031;-37
2021/10/13 11:08:20;;;;;;;6.72;3.15;;;21.10;73.70;;;;;;5122210;28;20032;-37
2021/10/13 11:10:46;;;;;;;3.70;3.33;;;21.00;73.60;;;;;;5122596;28;20765;-37
2021/10/13 11:13:12;;;;;;;4.75;3.72;;;21.10;73.70;;;;;;5124370;28;20027;-36
2021/10/13 11:15:39;;;;;;;3.95;3.53;;;21.00;73.70;;;;;;5122769;28;20036;-37
2021/10/13 11:18:16;;;;;;;4.22;3.90;;;21.00;73.70;;;;;;5122229;28;20067;-36
2021/10/13 11:20:43;;;;;;;4.20;3.80;;;21.00;73.60;;;;;;5122623;28;20023;-36
2021/10/13 11:23:10;;;;;;;4.00;3.60;;;21.00;73.70;;;;;;5122660;28;20035;-37
2021/10/13 11:25:37;;;;;;;4.40;3.80;;;21.00;73.80;;;;;;5122166;28;20028;-36
2021/10/13 11:28:10;;;;;;;4.40;4.00;;;21.00;73.80;;;;;;5128735;28;20122;-37
2021/10/13 11:30:39;;;;;;;3.90;3.50;;;21.00;73.70;;;;;;5122198;28;20260;-37
2021/10/13 11:33:06;;;;;;;3.78;3.47;;;21.00;73.90;;;;;;5127160;28;20111;-36
2021/10/13 11:35:33;;;;;;;5.43;3.85;;;21.00;73.80;;;;;;5129739;28;20023;-37
2021/10/13 11:37:59;;;;;;;3.77;3.47;;;21.00;73.90;;;;;;5103965;28;20039;-37
2021/10/13 11:40:26;;;;;;;4.97;4.00;;;21.00;73.90;;;;;;5123012;28;20038;-36
2021/10/13 11:42:58;;;;;;;3.78;3.42;;;21.00;73.80;;;;;;5122667;28;20031;-36
2021/10/13 11:45:25;;;;;;;4.00;3.70;;;21.00;73.80;;;;;;5122358;28;20036;-36
2021/10/13 11:47:51;;;;;;;5.15;3.58;;;21.00;73.90;;;;;;5122669;28;20027;-36
2021/10/13 11:50:21;;;;;;;4.95;3.90;;;21.00;73.90;;;;;;5122407;28;20073;-37
2021/10/13 11:52:55;;;;;;;4.20;3.80;;;20.90;73.80;;;;;;5125706;28;20027;-36
2021/10/13 11:55:25;;;;;;;4.35;3.67;;;21.00;74.00;;;;;;5126052;28;20096;-36
2021/10/13 11:58:04;;;;;;;3.47;3.17;;;21.00;74.00;;;;;;5125590;28;20028;-37
2021/10/13 12:00:48;;;;;;;3.70;3.40;;;21.00;74.00;;;;;;5125323;28;20031;-37
2021/10/13 12:03:14;;;;;;;4.82;3.50;;;20.90;74.00;;;;;;5125838;28;20024;-37
2021/10/13 12:05:42;;;;;;;3.75;3.42;;;20.90;74.00;;;;;;5126213;28;20023;-37
2021/10/13 12:08:18;;;;;;;4.00;3.60;;;20.90;74.00;;;;;;5125030;28;20020;-37
2021/10/13 12:10:49;;;;;;;4.03;3.60;;;20.90;74.00;;;;;;5126225;27;20070;-36
2021/10/13 12:13:28;;;;;;;4.97;3.60;;;20.90;74.10;;;;;;5125296;28;20057;-37
2021/10/13 12:15:59;;;;;;;4.35;3.85;;;20.90;74.10;;;;;;5121486;27;20028;-36
2021/10/13 12:18:27;;;;;;;4.22;3.70;;;20.90;74.10;;;;;;5125432;28;20526;-37
2021/10/13 12:21:02;;;;;;;5.97;3.75;;;20.90;74.10;;;;;;5125756;28;20024;-37
2021/10/13 12:23:29;;;;;;;3.97;3.55;;;20.90;74.10;;;;;;5125585;28;20030;-37
2021/10/13 12:25:55;;;;;;;5.05;3.50;;;20.90;74.20;;;;;;5124595;28;20558;-36
2021/10/13 12:28:23;;;;;;;3.83;3.38;;;20.90;74.10;;;;;;5125390;28;20052;-37
2021/10/13 12:30:57;;;;;;;4.18;3.78;;;20.90;74.10;;;;;;5125054;28;20012;-37
2021/10/13 12:33:23;;;;;;;5.32;3.58;;;20.80;74.10;;;;;;5131546;27;20042;-37
2021/10/13 12:35:50;;;;;;;4.18;3.67;;;20.80;74.10;;;;;;5107238;28;20504;-37
2021/10/13 12:38:18;;;;;;;5.13;3.97;;;20.80;74.20;;;;;;5137239;27;20046;-37
2021/10/13 12:41:05;;;;;;;3.95;3.45;;;20.80;74.20;;;;;;5139241;27;20022;-37
2021/10/13 12:43:31;;;;;;;3.92;3.53;;;20.80;74.20;;;;;;5124877;28;20034;-37
2021/10/13 12:46:26;;;;;;;3.93;3.63;;;20.80;74.20;;;;;;5124942;28;20024;-37
2021/10/13 12:48:53;;;;;;;4.75;3.38;;;20.80;74.20;;;;;;5112129;28;20026;-37
2021/10/13 12:51:19;;;;;;;3.58;3.28;;;20.80;74.20;;;;;;5125120;28;20107;-37
2021/10/13 12:53:46;;;;;;;3.97;3.67;;;20.80;74.20;;;;;;5124906;28;20075;-37
2021/10/13 12:56:18;;;;;;;6.15;3.70;;;20.80;74.30;;;;;;5124959;28;20031;-37